sensor_id;sensor_type;location;lat;lon;timestamp;P1;durP1;ratioP1;P2;durP2;ratioP2
52158;SDS011;38145;53.182;6.284;2022-09-03T00:02:04;3.92;;;0.98;;
52158;SDS011;38145;53.182;6.284;2022-09-03T00:07:43;4.03;;;1.10;;
52158;SDS011;38145;53.182;6.284;2022-09-03T00:10:15;4.50;;;1.05;;
52158;SDS011;38145;53.182;6.284;2022-09-03T00:12:46;3.80;;;0.85;;
52158;SDS011;38145;53.182;6.284;2022-09-03T00:15:16;1.45;;;0.80;;
52158;SDS011;38145;53.182;6.284;2022-09-03T00:17:53;2.55;;;0.80;;
52158;SDS011;38145;53.182;6.284;2022-09-03T00:20:30;3.75;;;0.90;;
52158;SDS011;38145;53.182;6.284;2022-09-03T00:23:03;2.50;;;0.77;;
52158;SDS011;38145;53.182;6.284;2022-09-03T00:25:35;4.03;;;0.90;;
52158;SDS011;38145;53.182;6.284;2022-09-03T00:28:10;2.22;;;0.82;;
52158;SDS011;38145;53.182;6.284;2022-09-03T00:30:40;2.28;;;0.95;;
52158;SDS011;38145;53.182;6.284;2022-09-03T00:33:16;5.03;;;1.00;;
52158;SDS011;38145;53.182;6.284;2022-09-03T00:38:37;1.23;;;0.70;;
52158;SDS011;38145;53.182;6.284;2022-09-03T00:44:07;5.40;;;0.80;;
52158;SDS011;38145;53.182;6.284;2022-09-03T00:46:39;2.78;;;1.10;;
52158;SDS011;38145;53.182;6.284;2022-09-03T00:51:43;1.73;;;0.65;;
52158;SDS011;38145;53.182;6.284;2022-09-03T00:54:28;1.63;;;0.82;;
52158;SDS011;38145;53.182;6.284;2022-09-03T00:59:59;2.33;;;0.90;;
52158;SDS011;38145;53.182;6.284;2022-09-03T01:05:09;1.58;;;0.70;;
52158;SDS011;38145;53.182;6.284;2022-09-03T01:08:01;1.08;;;0.75;;
52158;SDS011;38145;53.182;6.284;2022-09-03T01:10:45;2.80;;;0.77;;
52158;SDS011;38145;53.182;6.284;2022-09-03T01:13:35;2.15;;;0.80;;
52158;SDS011;38145;53.182;6.284;2022-09-03T01:16:11;1.05;;;0.70;;
52158;SDS011;38145;53.182;6.284;2022-09-03T01:21:38;1.48;;;0.68;;
52158;SDS011;38145;53.182;6.284;2022-09-03T01:29:23;3.25;;;0.68;;
52158;SDS011;38145;53.182;6.284;2022-09-03T01:32:03;1.75;;;0.80;;
52158;SDS011;38145;53.182;6.284;2022-09-03T01:42:55;1.65;;;0.90;;
52158;SDS011;38145;53.182;6.284;2022-09-03T01:48:03;2.80;;;0.80;;
52158;SDS011;38145;53.182;6.284;2022-09-03T01:50:52;1.13;;;0.73;;
52158;SDS011;38145;53.182;6.284;2022-09-03T01:53:30;2.65;;;0.88;;
52158;SDS011;38145;53.182;6.284;2022-09-03T01:56:17;3.92;;;1.00;;
52158;SDS011;38145;53.182;6.284;2022-09-03T01:59:14;1.55;;;0.85;;
52158;SDS011;38145;53.182;6.284;2022-09-03T02:01:46;1.20;;;0.77;;
52158;SDS011;38145;53.182;6.284;2022-09-03T02:04:19;3.30;;;0.95;;
52158;SDS011;38145;53.182;6.284;2022-09-03T02:06:48;2.83;;;0.77;;
52158;SDS011;38145;53.182;6.284;2022-09-03T02:11:41;4.13;;;1.25;;
52158;SDS011;38145;53.182;6.284;2022-09-03T02:14:11;4.28;;;1.05;;
52158;SDS011;38145;53.182;6.284;2022-09-03T02:16:38;2.90;;;1.40;;
52158;SDS011;38145;53.182;6.284;2022-09-03T02:19:05;1.13;;;0.93;;
52158;SDS011;38145;53.182;6.284;2022-09-03T02:21:35;2.08;;;0.85;;
52158;SDS011;38145;53.182;6.284;2022-09-03T02:24:04;5.05;;;1.10;;
52158;SDS011;38145;53.182;6.284;2022-09-03T02:28:57;3.08;;;0.90;;
52158;SDS011;38145;53.182;6.284;2022-09-03T02:31:25;3.28;;;0.93;;
52158;SDS011;38145;53.182;6.284;2022-09-03T02:33:52;3.10;;;1.02;;
52158;SDS011;38145;53.182;6.284;2022-09-03T02:36:19;6.25;;;1.10;;
52158;SDS011;38145;53.182;6.284;2022-09-03T02:38:49;3.03;;;0.90;;
52158;SDS011;38145;53.182;6.284;2022-09-03T02:41:15;2.78;;;0.77;;
52158;SDS011;38145;53.182;6.284;2022-09-03T02:43:49;6.10;;;1.00;;
52158;SDS011;38145;53.182;6.284;2022-09-03T02:46:35;2.13;;;1.00;;
52158;SDS011;38145;53.182;6.284;2022-09-03T02:49:04;1.25;;;0.88;;
52158;SDS011;38145;53.182;6.284;2022-09-03T02:51:31;1.13;;;1.02;;
52158;SDS011;38145;53.182;6.284;2022-09-03T02:54:00;1.35;;;0.73;;
52158;SDS011;38145;53.182;6.284;2022-09-03T02:56:25;2.38;;;1.00;;
52158;SDS011;38145;53.182;6.284;2022-09-03T02:58:52;2.67;;;0.90;;
52158;SDS011;38145;53.182;6.284;2022-09-03T03:01:18;5.00;;;1.15;;
52158;SDS011;38145;53.182;6.284;2022-09-03T03:03:44;2.22;;;0.80;;
52158;SDS011;38145;53.182;6.284;2022-09-03T03:06:10;1.42;;;0.85;;
52158;SDS011;38145;53.182;6.284;2022-09-03T03:08:38;2.50;;;1.08;;
52158;SDS011;38145;53.182;6.284;2022-09-03T03:11:04;1.65;;;1.10;;
52158;SDS011;38145;53.182;6.284;2022-09-03T03:13:31;2.03;;;1.10;;
52158;SDS011;38145;53.182;6.284;2022-09-03T03:15:58;1.80;;;1.08;;
52158;SDS011;38145;53.182;6.284;2022-09-03T03:18:26;3.03;;;1.23;;
52158;SDS011;38145;53.182;6.284;2022-09-03T03:20:52;2.30;;;1.00;;
52158;SDS011;38145;53.182;6.284;2022-09-03T03:23:18;1.92;;;1.08;;
52158;SDS011;38145;53.182;6.284;2022-09-03T03:25:45;2.60;;;0.90;;
52158;SDS011;38145;53.182;6.284;2022-09-03T03:28:11;2.70;;;0.85;;
52158;SDS011;38145;53.182;6.284;2022-09-03T03:30:38;4.47;;;1.05;;
52158;SDS011;38145;53.182;6.284;2022-09-03T03:33:07;5.03;;;1.27;;
52158;SDS011;38145;53.182;6.284;2022-09-03T03:35:34;3.53;;;0.90;;
52158;SDS011;38145;53.182;6.284;2022-09-03T03:38:00;5.40;;;1.05;;
52158;SDS011;38145;53.182;6.284;2022-09-03T03:40:26;2.42;;;1.63;;
52158;SDS011;38145;53.182;6.284;2022-09-03T03:42:52;3.53;;;1.20;;
52158;SDS011;38145;53.182;6.284;2022-09-03T03:45:19;1.73;;;1.05;;
52158;SDS011;38145;53.182;6.284;2022-09-03T03:47:45;6.47;;;1.20;;
52158;SDS011;38145;53.182;6.284;2022-09-03T03:50:11;3.95;;;1.05;;
52158;SDS011;38145;53.182;6.284;2022-09-03T03:52:37;2.95;;;1.08;;
52158;SDS011;38145;53.182;6.284;2022-09-03T03:55:02;1.63;;;0.93;;
52158;SDS011;38145;53.182;6.284;2022-09-03T03:57:29;3.80;;;1.10;;
52158;SDS011;38145;53.182;6.284;2022-09-03T03:59:56;1.70;;;1.02;;
52158;SDS011;38145;53.182;6.284;2022-09-03T04:02:22;3.08;;;1.23;;
52158;SDS011;38145;53.182;6.284;2022-09-03T04:04:47;5.30;;;1.05;;
52158;SDS011;38145;53.182;6.284;2022-09-03T04:07:13;4.25;;;1.30;;
52158;SDS011;38145;53.182;6.284;2022-09-03T04:09:39;2.95;;;1.38;;
52158;SDS011;38145;53.182;6.284;2022-09-03T04:12:05;3.20;;;1.00;;
52158;SDS011;38145;53.182;6.284;2022-09-03T04:14:32;1.50;;;1.17;;
52158;SDS011;38145;53.182;6.284;2022-09-03T04:16:59;2.78;;;1.13;;
52158;SDS011;38145;53.182;6.284;2022-09-03T04:19:27;3.45;;;1.40;;
52158;SDS011;38145;53.182;6.284;2022-09-03T04:21:54;1.65;;;0.85;;
52158;SDS011;38145;53.182;6.284;2022-09-03T04:24:20;1.75;;;0.93;;
52158;SDS011;38145;53.182;6.284;2022-09-03T04:26:46;4.18;;;1.20;;
52158;SDS011;38145;53.182;6.284;2022-09-03T04:29:14;5.57;;;1.00;;
52158;SDS011;38145;53.182;6.284;2022-09-03T04:31:40;2.55;;;1.00;;
52158;SDS011;38145;53.182;6.284;2022-09-03T04:34:26;1.38;;;1.02;;
52158;SDS011;38145;53.182;6.284;2022-09-03T04:36:51;2.92;;;1.08;;
52158;SDS011;38145;53.182;6.284;2022-09-03T04:39:18;3.30;;;1.38;;
52158;SDS011;38145;53.182;6.284;2022-09-03T04:41:44;3.60;;;1.50;;
52158;SDS011;38145;53.182;6.284;2022-09-03T04:44:10;3.60;;;1.23;;
52158;SDS011;38145;53.182;6.284;2022-09-03T04:46:36;1.60;;;1.10;;
52158;SDS011;38145;53.182;6.284;2022-09-03T04:49:02;5.75;;;1.23;;
52158;SDS011;38145;53.182;6.284;2022-09-03T04:51:28;4.45;;;1.58;;
52158;SDS011;38145;53.182;6.284;2022-09-03T04:53:55;1.98;;;1.10;;
52158;SDS011;38145;53.182;6.284;2022-09-03T04:56:24;4.03;;;1.25;;
52158;SDS011;38145;53.182;6.284;2022-09-03T04:58:54;4.25;;;1.55;;
52158;SDS011;38145;53.182;6.284;2022-09-03T05:01:21;3.13;;;1.40;;
52158;SDS011;38145;53.182;6.284;2022-09-03T05:03:49;5.25;;;1.40;;
52158;SDS011;38145;53.182;6.284;2022-09-03T05:06:20;2.97;;;1.13;;
52158;SDS011;38145;53.182;6.284;2022-09-03T05:08:47;5.03;;;1.48;;
52158;SDS011;38145;53.182;6.284;2022-09-03T05:11:14;2.95;;;1.58;;
52158;SDS011;38145;53.182;6.284;2022-09-03T05:13:40;4.70;;;1.58;;
52158;SDS011;38145;53.182;6.284;2022-09-03T05:16:07;4.10;;;1.40;;
52158;SDS011;38145;53.182;6.284;2022-09-03T05:18:34;2.75;;;1.88;;
52158;SDS011;38145;53.182;6.284;2022-09-03T05:21:02;2.00;;;1.40;;
52158;SDS011;38145;53.182;6.284;2022-09-03T05:23:30;3.90;;;1.33;;
52158;SDS011;38145;53.182;6.284;2022-09-03T05:25:57;1.75;;;1.38;;
52158;SDS011;38145;53.182;6.284;2022-09-03T05:28:25;4.53;;;1.38;;
52158;SDS011;38145;53.182;6.284;2022-09-03T05:33:25;5.05;;;1.60;;
52158;SDS011;38145;53.182;6.284;2022-09-03T05:35:52;1.85;;;1.17;;
52158;SDS011;38145;53.182;6.284;2022-09-03T05:38:18;2.40;;;1.30;;
52158;SDS011;38145;53.182;6.284;2022-09-03T05:40:45;3.35;;;1.27;;
52158;SDS011;38145;53.182;6.284;2022-09-03T05:43:10;4.63;;;1.60;;
52158;SDS011;38145;53.182;6.284;2022-09-03T05:45:36;3.28;;;1.52;;
52158;SDS011;38145;53.182;6.284;2022-09-03T05:48:03;3.95;;;1.63;;
52158;SDS011;38145;53.182;6.284;2022-09-03T05:50:28;3.45;;;1.70;;
52158;SDS011;38145;53.182;6.284;2022-09-03T05:52:54;1.67;;;1.33;;
52158;SDS011;38145;53.182;6.284;2022-09-03T05:55:22;4.57;;;1.67;;
52158;SDS011;38145;53.182;6.284;2022-09-03T05:57:51;1.95;;;1.42;;
52158;SDS011;38145;53.182;6.284;2022-09-03T06:00:17;3.63;;;1.40;;
52158;SDS011;38145;53.182;6.284;2022-09-03T06:02:49;4.47;;;1.52;;
52158;SDS011;38145;53.182;6.284;2022-09-03T06:05:16;2.88;;;1.42;;
52158;SDS011;38145;53.182;6.284;2022-09-03T06:07:43;4.75;;;1.77;;
52158;SDS011;38145;53.182;6.284;2022-09-03T06:10:09;3.47;;;1.60;;
52158;SDS011;38145;53.182;6.284;2022-09-03T06:12:36;3.25;;;1.63;;
52158;SDS011;38145;53.182;6.284;2022-09-03T06:15:03;5.95;;;1.50;;
52158;SDS011;38145;53.182;6.284;2022-09-03T06:17:30;6.10;;;1.70;;
52158;SDS011;38145;53.182;6.284;2022-09-03T06:19:55;3.13;;;1.88;;
52158;SDS011;38145;53.182;6.284;2022-09-03T06:22:21;2.20;;;1.60;;
52158;SDS011;38145;53.182;6.284;2022-09-03T06:24:49;4.43;;;1.35;;
52158;SDS011;38145;53.182;6.284;2022-09-03T06:27:15;6.93;;;1.75;;
52158;SDS011;38145;53.182;6.284;2022-09-03T06:29:41;3.25;;;1.60;;
52158;SDS011;38145;53.182;6.284;2022-09-03T06:32:07;3.03;;;2.22;;
52158;SDS011;38145;53.182;6.284;2022-09-03T06:34:33;1.98;;;1.52;;
52158;SDS011;38145;53.182;6.284;2022-09-03T06:36:59;5.47;;;1.60;;
52158;SDS011;38145;53.182;6.284;2022-09-03T06:39:25;2.90;;;1.70;;
52158;SDS011;38145;53.182;6.284;2022-09-03T06:41:51;3.50;;;1.55;;
52158;SDS011;38145;53.182;6.284;2022-09-03T06:44:17;4.60;;;1.63;;
52158;SDS011;38145;53.182;6.284;2022-09-03T06:46:43;10.80;;;1.65;;
52158;SDS011;38145;53.182;6.284;2022-09-03T06:51:37;4.90;;;1.50;;
52158;SDS011;38145;53.182;6.284;2022-09-03T06:54:04;2.85;;;1.48;;
52158;SDS011;38145;53.182;6.284;2022-09-03T06:56:31;2.22;;;1.42;;
52158;SDS011;38145;53.182;6.284;2022-09-03T06:58:58;3.15;;;1.80;;
52158;SDS011;38145;53.182;6.284;2022-09-03T07:01:28;2.85;;;1.20;;
52158;SDS011;38145;53.182;6.284;2022-09-03T07:03:56;4.57;;;1.55;;
52158;SDS011;38145;53.182;6.284;2022-09-03T07:06:25;3.08;;;1.75;;
52158;SDS011;38145;53.182;6.284;2022-09-03T07:08:53;2.80;;;1.60;;
52158;SDS011;38145;53.182;6.284;2022-09-03T07:11:22;2.65;;;1.60;;
52158;SDS011;38145;53.182;6.284;2022-09-03T07:13:51;4.30;;;1.58;;
52158;SDS011;38145;53.182;6.284;2022-09-03T07:16:19;1.55;;;1.20;;
52158;SDS011;38145;53.182;6.284;2022-09-03T07:18:47;2.72;;;1.80;;
52158;SDS011;38145;53.182;6.284;2022-09-03T07:21:14;3.22;;;1.73;;
52158;SDS011;38145;53.182;6.284;2022-09-03T07:23:43;8.57;;;1.95;;
52158;SDS011;38145;53.182;6.284;2022-09-03T07:26:13;1.85;;;1.30;;
52158;SDS011;38145;53.182;6.284;2022-09-03T07:28:41;7.38;;;1.60;;
52158;SDS011;38145;53.182;6.284;2022-09-03T07:31:14;1.83;;;1.30;;
52158;SDS011;38145;53.182;6.284;2022-09-03T07:33:44;4.10;;;1.35;;
52158;SDS011;38145;53.182;6.284;2022-09-03T07:36:11;4.40;;;1.57;;
52158;SDS011;38145;53.182;6.284;2022-09-03T07:38:40;2.83;;;1.60;;
52158;SDS011;38145;53.182;6.284;2022-09-03T07:41:08;2.05;;;1.40;;
52158;SDS011;38145;53.182;6.284;2022-09-03T07:43:36;2.40;;;1.55;;
52158;SDS011;38145;53.182;6.284;2022-09-03T07:46:06;3.88;;;1.70;;
52158;SDS011;38145;53.182;6.284;2022-09-03T07:48:32;2.40;;;1.17;;
52158;SDS011;38145;53.182;6.284;2022-09-03T07:50:58;2.35;;;1.35;;
52158;SDS011;38145;53.182;6.284;2022-09-03T07:53:26;5.60;;;1.40;;
52158;SDS011;38145;53.182;6.284;2022-09-03T07:55:54;4.07;;;1.48;;
52158;SDS011;38145;53.182;6.284;2022-09-03T07:58:27;3.22;;;1.42;;
52158;SDS011;38145;53.182;6.284;2022-09-03T08:00:55;3.05;;;1.42;;
52158;SDS011;38145;53.182;6.284;2022-09-03T08:03:21;5.00;;;1.38;;
52158;SDS011;38145;53.182;6.284;2022-09-03T08:05:47;5.82;;;1.65;;
52158;SDS011;38145;53.182;6.284;2022-09-03T08:08:13;2.30;;;1.30;;
52158;SDS011;38145;53.182;6.284;2022-09-03T08:10:39;2.58;;;1.10;;
52158;SDS011;38145;53.182;6.284;2022-09-03T08:13:05;2.13;;;1.30;;
52158;SDS011;38145;53.182;6.284;2022-09-03T08:15:31;2.40;;;1.25;;
52158;SDS011;38145;53.182;6.284;2022-09-03T08:17:58;3.40;;;1.23;;
52158;SDS011;38145;53.182;6.284;2022-09-03T08:20:26;2.47;;;1.30;;
52158;SDS011;38145;53.182;6.284;2022-09-03T08:22:52;3.88;;;1.10;;
52158;SDS011;38145;53.182;6.284;2022-09-03T08:25:25;3.83;;;1.10;;
52158;SDS011;38145;53.182;6.284;2022-09-03T08:27:50;3.88;;;1.13;;
52158;SDS011;38145;53.182;6.284;2022-09-03T08:30:16;1.77;;;1.20;;
52158;SDS011;38145;53.182;6.284;2022-09-03T08:32:42;1.20;;;0.98;;
52158;SDS011;38145;53.182;6.284;2022-09-03T08:35:08;3.00;;;1.10;;
52158;SDS011;38145;53.182;6.284;2022-09-03T08:37:34;1.23;;;0.93;;
52158;SDS011;38145;53.182;6.284;2022-09-03T08:40:00;5.00;;;1.00;;
52158;SDS011;38145;53.182;6.284;2022-09-03T08:42:40;1.88;;;1.00;;
52158;SDS011;38145;53.182;6.284;2022-09-03T08:45:22;4.47;;;1.10;;
52158;SDS011;38145;53.182;6.284;2022-09-03T08:47:50;3.33;;;1.13;;
52158;SDS011;38145;53.182;6.284;2022-09-03T08:50:26;6.72;;;0.90;;
52158;SDS011;38145;53.182;6.284;2022-09-03T08:55:48;6.88;;;1.10;;
52158;SDS011;38145;53.182;6.284;2022-09-03T08:58:19;4.30;;;0.73;;
52158;SDS011;38145;53.182;6.284;2022-09-03T09:00:49;2.58;;;1.05;;
52158;SDS011;38145;53.182;6.284;2022-09-03T09:06:17;3.05;;;1.25;;
52158;SDS011;38145;53.182;6.284;2022-09-03T09:08:52;6.50;;;1.15;;
52158;SDS011;38145;53.182;6.284;2022-09-03T09:11:36;1.95;;;0.88;;
52158;SDS011;38145;53.182;6.284;2022-09-03T09:14:15;4.20;;;1.05;;
52158;SDS011;38145;53.182;6.284;2022-09-03T09:16:57;2.65;;;1.00;;
52158;SDS011;38145;53.182;6.284;2022-09-03T09:19:38;3.05;;;0.82;;
52158;SDS011;38145;53.182;6.284;2022-09-03T09:22:23;3.00;;;1.20;;
52158;SDS011;38145;53.182;6.284;2022-09-03T09:24:55;9.48;;;1.15;;
52158;SDS011;38145;53.182;6.284;2022-09-03T09:27:23;2.63;;;1.05;;
52158;SDS011;38145;53.182;6.284;2022-09-03T09:29:49;5.10;;;1.17;;
52158;SDS011;38145;53.182;6.284;2022-09-03T09:32:18;3.42;;;1.27;;
52158;SDS011;38145;53.182;6.284;2022-09-03T09:34:44;4.18;;;1.33;;
52158;SDS011;38145;53.182;6.284;2022-09-03T09:37:11;2.15;;;1.00;;
52158;SDS011;38145;53.182;6.284;2022-09-03T09:39:39;5.28;;;1.60;;
52158;SDS011;38145;53.182;6.284;2022-09-03T09:42:20;3.13;;;1.15;;
52158;SDS011;38145;53.182;6.284;2022-09-03T09:44:46;2.25;;;1.20;;
52158;SDS011;38145;53.182;6.284;2022-09-03T09:47:21;3.33;;;1.50;;
52158;SDS011;38145;53.182;6.284;2022-09-03T09:52:14;2.40;;;0.88;;
52158;SDS011;38145;53.182;6.284;2022-09-03T09:54:41;3.50;;;1.10;;
52158;SDS011;38145;53.182;6.284;2022-09-03T09:57:14;2.78;;;1.10;;
52158;SDS011;38145;53.182;6.284;2022-09-03T09:59:48;4.15;;;1.30;;
52158;SDS011;38145;53.182;6.284;2022-09-03T10:02:18;2.25;;;1.10;;
52158;SDS011;38145;53.182;6.284;2022-09-03T10:04:53;2.30;;;1.27;;
52158;SDS011;38145;53.182;6.284;2022-09-03T10:07:53;2.53;;;1.10;;
52158;SDS011;38145;53.182;6.284;2022-09-03T10:10:20;3.20;;;1.13;;
52158;SDS011;38145;53.182;6.284;2022-09-03T10:12:48;2.00;;;0.82;;
52158;SDS011;38145;53.182;6.284;2022-09-03T10:15:22;4.05;;;1.10;;
52158;SDS011;38145;53.182;6.284;2022-09-03T10:17:56;1.75;;;0.90;;
52158;SDS011;38145;53.182;6.284;2022-09-03T10:23:17;3.17;;;0.90;;
52158;SDS011;38145;53.182;6.284;2022-09-03T10:25:51;5.55;;;1.20;;
52158;SDS011;38145;53.182;6.284;2022-09-03T10:28:21;4.55;;;1.15;;
52158;SDS011;38145;53.182;6.284;2022-09-03T10:33:29;3.05;;;1.20;;
52158;SDS011;38145;53.182;6.284;2022-09-03T10:38:39;1.08;;;0.70;;
52158;SDS011;38145;53.182;6.284;2022-09-03T10:41:19;0.88;;;0.70;;
52158;SDS011;38145;53.182;6.284;2022-09-03T10:44:23;1.80;;;0.95;;
52158;SDS011;38145;53.182;6.284;2022-09-03T10:53:10;2.60;;;0.95;;
52158;SDS011;38145;53.182;6.284;2022-09-03T10:58:41;3.72;;;0.90;;
52158;SDS011;38145;53.182;6.284;2022-09-03T11:03:52;2.67;;;0.80;;
52158;SDS011;38145;53.182;6.284;2022-09-03T11:06:33;2.00;;;0.70;;
52158;SDS011;38145;53.182;6.284;2022-09-03T11:09:11;1.95;;;1.15;;
52158;SDS011;38145;53.182;6.284;2022-09-03T11:11:54;4.97;;;0.70;;
52158;SDS011;38145;53.182;6.284;2022-09-03T11:14:27;5.13;;;0.90;;
52158;SDS011;38145;53.182;6.284;2022-09-03T11:16:59;7.18;;;1.00;;
52158;SDS011;38145;53.182;6.284;2022-09-03T11:19:36;4.47;;;1.00;;
52158;SDS011;38145;53.182;6.284;2022-09-03T11:22:12;7.53;;;1.17;;
52158;SDS011;38145;53.182;6.284;2022-09-03T11:24:41;3.35;;;0.95;;
52158;SDS011;38145;53.182;6.284;2022-09-03T11:27:17;2.30;;;0.77;;
52158;SDS011;38145;53.182;6.284;2022-09-03T11:29:54;1.15;;;0.75;;
52158;SDS011;38145;53.182;6.284;2022-09-03T11:32:26;2.55;;;0.90;;
52158;SDS011;38145;53.182;6.284;2022-09-03T11:35:13;0.90;;;0.80;;
52158;SDS011;38145;53.182;6.284;2022-09-03T11:37:49;1.10;;;0.70;;
52158;SDS011;38145;53.182;6.284;2022-09-03T11:40:19;3.08;;;0.88;;
52158;SDS011;38145;53.182;6.284;2022-09-03T11:42:46;3.53;;;0.60;;
52158;SDS011;38145;53.182;6.284;2022-09-03T11:47:44;3.85;;;0.70;;
52158;SDS011;38145;53.182;6.284;2022-09-03T11:50:21;1.50;;;0.73;;
52158;SDS011;38145;53.182;6.284;2022-09-03T11:52:48;1.92;;;1.02;;
52158;SDS011;38145;53.182;6.284;2022-09-03T11:58:22;7.53;;;1.00;;
52158;SDS011;38145;53.182;6.284;2022-09-03T12:00:58;3.53;;;0.93;;
52158;SDS011;38145;53.182;6.284;2022-09-03T12:03:27;6.40;;;0.75;;
52158;SDS011;38145;53.182;6.284;2022-09-03T12:08:43;1.73;;;0.63;;
52158;SDS011;38145;53.182;6.284;2022-09-03T12:16:39;1.95;;;0.80;;
52158;SDS011;38145;53.182;6.284;2022-09-03T12:19:31;4.45;;;1.10;;
52158;SDS011;38145;53.182;6.284;2022-09-03T12:22:11;3.50;;;1.17;;
52158;SDS011;38145;53.182;6.284;2022-09-03T12:24:39;5.20;;;1.40;;
52158;SDS011;38145;53.182;6.284;2022-09-03T12:27:07;3.33;;;0.80;;
52158;SDS011;38145;53.182;6.284;2022-09-03T12:29:36;1.17;;;0.82;;
52158;SDS011;38145;53.182;6.284;2022-09-03T12:32:05;4.13;;;0.75;;
52158;SDS011;38145;53.182;6.284;2022-09-03T12:34:33;4.45;;;0.60;;
52158;SDS011;38145;53.182;6.284;2022-09-03T12:36:59;1.58;;;0.60;;
52158;SDS011;38145;53.182;6.284;2022-09-03T12:39:25;2.78;;;0.90;;
52158;SDS011;38145;53.182;6.284;2022-09-03T12:41:55;1.33;;;0.68;;
52158;SDS011;38145;53.182;6.284;2022-09-03T12:44:29;2.72;;;0.90;;
52158;SDS011;38145;53.182;6.284;2022-09-03T12:47:09;2.42;;;0.93;;
52158;SDS011;38145;53.182;6.284;2022-09-03T12:52:16;2.05;;;0.80;;
52158;SDS011;38145;53.182;6.284;2022-09-03T12:54:52;3.83;;;1.13;;
52158;SDS011;38145;53.182;6.284;2022-09-03T12:57:23;1.55;;;0.70;;
52158;SDS011;38145;53.182;6.284;2022-09-03T12:59:56;2.15;;;0.90;;
52158;SDS011;38145;53.182;6.284;2022-09-03T13:02:28;1.70;;;0.68;;
52158;SDS011;38145;53.182;6.284;2022-09-03T13:05:02;2.15;;;0.90;;
52158;SDS011;38145;53.182;6.284;2022-09-03T13:07:32;5.30;;;0.93;;
52158;SDS011;38145;53.182;6.284;2022-09-03T13:10:03;4.10;;;0.88;;
52158;SDS011;38145;53.182;6.284;2022-09-03T13:12:33;2.38;;;0.90;;
52158;SDS011;38145;53.182;6.284;2022-09-03T13:15:07;4.50;;;0.98;;
52158;SDS011;38145;53.182;6.284;2022-09-03T13:17:42;4.57;;;1.00;;
52158;SDS011;38145;53.182;6.284;2022-09-03T13:20:33;4.88;;;0.77;;
52158;SDS011;38145;53.182;6.284;2022-09-03T13:23:10;1.42;;;0.80;;
52158;SDS011;38145;53.182;6.284;2022-09-03T13:26:11;1.30;;;0.90;;
52158;SDS011;38145;53.182;6.284;2022-09-03T13:28:51;3.20;;;1.08;;
52158;SDS011;38145;53.182;6.284;2022-09-03T13:31:27;4.35;;;0.88;;
52158;SDS011;38145;53.182;6.284;2022-09-03T13:34:05;7.18;;;1.00;;
52158;SDS011;38145;53.182;6.284;2022-09-03T13:36:37;3.03;;;1.10;;
52158;SDS011;38145;53.182;6.284;2022-09-03T13:39:18;6.82;;;1.00;;
52158;SDS011;38145;53.182;6.284;2022-09-03T13:41:54;2.75;;;0.93;;
52158;SDS011;38145;53.182;6.284;2022-09-03T13:44:33;2.47;;;0.93;;
52158;SDS011;38145;53.182;6.284;2022-09-03T13:50:01;4.28;;;0.90;;
52158;SDS011;38145;53.182;6.284;2022-09-03T13:52:59;2.47;;;1.13;;
52158;SDS011;38145;53.182;6.284;2022-09-03T13:55:35;2.95;;;0.85;;
52158;SDS011;38145;53.182;6.284;2022-09-03T13:58:15;2.60;;;0.80;;
52158;SDS011;38145;53.182;6.284;2022-09-03T14:00:49;5.00;;;0.73;;
52158;SDS011;38145;53.182;6.284;2022-09-03T14:03:30;1.35;;;0.57;;
52158;SDS011;38145;53.182;6.284;2022-09-03T14:06:12;5.43;;;0.77;;
52158;SDS011;38145;53.182;6.284;2022-09-03T14:11:43;2.05;;;1.00;;
52158;SDS011;38145;53.182;6.284;2022-09-03T14:17:18;2.67;;;0.82;;
52158;SDS011;38145;53.182;6.284;2022-09-03T14:20:07;2.97;;;0.75;;
52158;SDS011;38145;53.182;6.284;2022-09-03T14:22:49;2.92;;;0.80;;
52158;SDS011;38145;53.182;6.284;2022-09-03T14:25:20;3.80;;;1.10;;
52158;SDS011;38145;53.182;6.284;2022-09-03T14:27:47;3.50;;;0.95;;
52158;SDS011;38145;53.182;6.284;2022-09-03T14:30:18;4.82;;;1.10;;
52158;SDS011;38145;53.182;6.284;2022-09-03T14:33:00;1.92;;;0.70;;
52158;SDS011;38145;53.182;6.284;2022-09-03T14:38:19;7.00;;;1.17;;
52158;SDS011;38145;53.182;6.284;2022-09-03T14:44:02;1.83;;;0.63;;
52158;SDS011;38145;53.182;6.284;2022-09-03T14:49:36;6.07;;;0.75;;
52158;SDS011;38145;53.182;6.284;2022-09-03T14:52:21;2.30;;;0.65;;
52158;SDS011;38145;53.182;6.284;2022-09-03T14:55:12;2.33;;;0.75;;
52158;SDS011;38145;53.182;6.284;2022-09-03T14:57:59;1.67;;;0.82;;
52158;SDS011;38145;53.182;6.284;2022-09-03T15:00:48;2.10;;;0.70;;
52158;SDS011;38145;53.182;6.284;2022-09-03T15:03:24;1.85;;;0.80;;
52158;SDS011;38145;53.182;6.284;2022-09-03T15:06:08;4.80;;;1.20;;
52158;SDS011;38145;53.182;6.284;2022-09-03T15:11:18;3.28;;;0.80;;
52158;SDS011;38145;53.182;6.284;2022-09-03T15:13:59;4.75;;;0.70;;
52158;SDS011;38145;53.182;6.284;2022-09-03T15:16:52;3.13;;;1.20;;
52158;SDS011;38145;53.182;6.284;2022-09-03T15:19:57;2.30;;;1.13;;
52158;SDS011;38145;53.182;6.284;2022-09-03T15:22:31;2.13;;;0.75;;
52158;SDS011;38145;53.182;6.284;2022-09-03T15:25:13;3.55;;;0.80;;
52158;SDS011;38145;53.182;6.284;2022-09-03T15:28:10;2.92;;;0.70;;
52158;SDS011;38145;53.182;6.284;2022-09-03T15:30:42;3.58;;;0.90;;
52158;SDS011;38145;53.182;6.284;2022-09-03T15:33:17;1.08;;;0.70;;
52158;SDS011;38145;53.182;6.284;2022-09-03T15:35:53;1.58;;;0.90;;
52158;SDS011;38145;53.182;6.284;2022-09-03T15:41:20;1.55;;;0.75;;
52158;SDS011;38145;53.182;6.284;2022-09-03T15:43:48;5.50;;;0.93;;
52158;SDS011;38145;53.182;6.284;2022-09-03T15:54:51;4.07;;;0.95;;
52158;SDS011;38145;53.182;6.284;2022-09-03T15:57:24;1.95;;;0.80;;
52158;SDS011;38145;53.182;6.284;2022-09-03T16:02:33;2.83;;;0.88;;
52158;SDS011;38145;53.182;6.284;2022-09-03T16:05:15;2.65;;;0.90;;
52158;SDS011;38145;53.182;6.284;2022-09-03T16:10:29;2.85;;;1.20;;
52158;SDS011;38145;53.182;6.284;2022-09-03T16:15:48;1.80;;;0.73;;
52158;SDS011;38145;53.182;6.284;2022-09-03T16:18:25;1.75;;;0.93;;
52158;SDS011;38145;53.182;6.284;2022-09-03T16:21:04;5.10;;;1.10;;
52158;SDS011;38145;53.182;6.284;2022-09-03T16:26:20;1.52;;;0.93;;
52158;SDS011;38145;53.182;6.284;2022-09-03T16:28:52;4.68;;;0.80;;
52158;SDS011;38145;53.182;6.284;2022-09-03T16:31:27;2.67;;;1.10;;
52158;SDS011;38145;53.182;6.284;2022-09-03T16:34:14;1.92;;;0.85;;
52158;SDS011;38145;53.182;6.284;2022-09-03T16:39:25;3.92;;;1.27;;
52158;SDS011;38145;53.182;6.284;2022-09-03T16:42:15;3.90;;;1.10;;
52158;SDS011;38145;53.182;6.284;2022-09-03T16:44:55;4.57;;;0.95;;
52158;SDS011;38145;53.182;6.284;2022-09-03T16:50:04;3.88;;;1.02;;
52158;SDS011;38145;53.182;6.284;2022-09-03T16:52:47;1.63;;;1.15;;
52158;SDS011;38145;53.182;6.284;2022-09-03T16:55:31;1.85;;;0.90;;
52158;SDS011;38145;53.182;6.284;2022-09-03T16:58:20;1.92;;;0.90;;
52158;SDS011;38145;53.182;6.284;2022-09-03T17:06:46;2.35;;;0.80;;
52158;SDS011;38145;53.182;6.284;2022-09-03T17:12:09;6.22;;;1.35;;
52158;SDS011;38145;53.182;6.284;2022-09-03T17:19:52;4.43;;;1.40;;
52158;SDS011;38145;53.182;6.284;2022-09-03T17:22:35;5.40;;;1.35;;
52158;SDS011;38145;53.182;6.284;2022-09-03T17:27:49;1.63;;;0.93;;
52158;SDS011;38145;53.182;6.284;2022-09-03T17:30:40;3.13;;;1.38;;
52158;SDS011;38145;53.182;6.284;2022-09-03T17:33:24;3.40;;;1.25;;
52158;SDS011;38145;53.182;6.284;2022-09-03T17:38:40;3.47;;;1.23;;
52158;SDS011;38145;53.182;6.284;2022-09-03T17:43:59;2.15;;;1.27;;
52158;SDS011;38145;53.182;6.284;2022-09-03T17:49:30;5.93;;;1.02;;
52158;SDS011;38145;53.182;6.284;2022-09-03T17:52:10;4.32;;;1.10;;
52158;SDS011;38145;53.182;6.284;2022-09-03T17:54:47;2.38;;;1.13;;
52158;SDS011;38145;53.182;6.284;2022-09-03T17:57:19;6.20;;;1.23;;
52158;SDS011;38145;53.182;6.284;2022-09-03T18:02:34;9.02;;;1.48;;
52158;SDS011;38145;53.182;6.284;2022-09-03T18:07:42;3.92;;;1.23;;